»·PEaware :: N9907W KLAX-KSNA

N9907W :: KLAX-KSNA

FLIGHT INFORMATION

Flight Status: Arrived
Operator: Privately registered:
United States
More flights under this callsign
Pilot: John S. (17584)
Aircraft: PIPER PA-28R-201 ARROW
(P28R)
More flights by this aircraft type
Origin: KLAX Los Angeles Intl
United States
Destination: KSNA John Wayne-Orange Co
United States
More flights between these airports :: More routes between these airports
Route: +SLI8 SLI
File this flight plan on PilotEdge
Remarks: I6
Altitude:
(Current/Filed)
5,000ft
Speed:
(Current/Filed)
120kts
Departed: 07-Oct-18 05:14 PM
Arrived: 07-Oct-18 05:55 PM
Distance/Time
Traveled:
31nm/0:41
Distance/Time
To Go:
Arrived

Flight Plot

Page will automatically refresh every two minutes.

Flight plan parsing failed; only flown route is shown


Map Options




Map Legend


Flown Route
Filed Route
Departure Airport
Arrival Airport
Navaid (VOR, NDB)
Fix

Horizontal Profiles

Position Reports

Time Latitude Longitude Heading Altitude Ground
Speed
07-Oct-18 17:00 33.934575 -118.382207 226 95ft 0kts
07-Oct-18 17:01 33.934575 -118.382207 226 95ft 0kts
07-Oct-18 17:02 33.934575 -118.382207 226 95ft 0kts
07-Oct-18 17:03 33.934575 -118.382207 226 95ft 0kts
07-Oct-18 17:04 33.934575 -118.382207 226 95ft 0kts
07-Oct-18 17:05 33.934575 -118.382207 226 95ft 0kts
07-Oct-18 17:06 33.934575 -118.382207 226 95ft 0kts
07-Oct-18 17:07 33.934575 -118.382207 226 95ft 0kts
07-Oct-18 17:08 33.934575 -118.382207 226 95ft 0kts
07-Oct-18 17:09 33.934575 -118.382207 226 95ft 0kts
07-Oct-18 17:10 33.934575 -118.382207 226 95ft 0kts
07-Oct-18 17:11 33.934575 -118.382207 226 95ft 0kts
07-Oct-18 17:12 33.934655 -118.381805 74 95ft 7kts
07-Oct-18 17:13 33.936179 -118.382111 266 95ft 5kts
07-Oct-18 17:14 33.936282 -118.382622 318 95ft 0kts
07-Oct-18 17:15 33.936771 -118.382819 348 95ft 12kts
07-Oct-18 17:16 33.937262 -118.396209 262 791ft 55kts
07-Oct-18 17:17 33.935370 -118.413673 256 1943ft 52kts
07-Oct-18 17:18 33.933300 -118.432678 264 3026ft 61kts
07-Oct-18 17:19 33.919411 -118.443618 209 4098ft 67kts
07-Oct-18 17:20 33.894159 -118.462248 217 4041ft 122kts
07-Oct-18 17:21 33.860182 -118.457078 144 4037ft 136kts
07-Oct-18 17:22 33.833583 -118.427071 142 4038ft 129kts
07-Oct-18 17:23 33.808587 -118.398227 142 4037ft 122kts
07-Oct-18 17:24 33.784723 -118.370483 142 4037ft 120kts
07-Oct-18 17:25 33.760543 -118.342299 142 4037ft 119kts
07-Oct-18 17:26 33.736834 -118.314676 142 4037ft 119kts
07-Oct-18 17:27 33.711535 -118.285665 142 4037ft 128kts
07-Oct-18 17:28 33.685611 -118.256176 142 4037ft 129kts
07-Oct-18 17:29 33.682076 -118.215849 75 4035ft 140kts
07-Oct-18 17:30 33.705471 -118.178172 53 4037ft 141kts
07-Oct-18 17:31 33.729128 -118.140736 53 4037ft 141kts
07-Oct-18 17:32 33.752717 -118.103266 53 4037ft 140kts
07-Oct-18 17:33 33.775162 -118.067627 57 4037ft 131kts
07-Oct-18 17:34 33.793060 -118.030335 69 4037ft 128kts
07-Oct-18 17:35 33.808640 -117.991573 67 4034ft 131kts
07-Oct-18 17:36 33.825385 -117.950020 65 4037ft 141kts
07-Oct-18 17:37 33.842464 -117.907538 65 4036ft 142kts
07-Oct-18 17:38 33.859586 -117.864867 65 4042ft 142kts
07-Oct-18 17:39 33.876732 -117.822059 65 4042ft 142kts
07-Oct-18 17:40 33.893982 -117.778940 63 4038ft 143kts
07-Oct-18 17:41 33.911306 -117.735569 62 4035ft 144kts
07-Oct-18 17:42 33.936406 -117.700160 22 3833ft 144kts
07-Oct-18 17:43 33.972095 -117.677318 22 3557ft 141kts
07-Oct-18 17:44 33.992631 -117.691000 243 3559ft 116kts
07-Oct-18 17:45 33.961385 -117.704403 196 3561ft 125kts
07-Oct-18 17:46 33.927273 -117.711844 195 3559ft 124kts
07-Oct-18 17:47 33.896126 -117.728722 213 3508ft 114kts
07-Oct-18 17:48 33.866821 -117.747514 211 3424ft 122kts
07-Oct-18 17:49 33.837351 -117.766328 211 3429ft 119kts
07-Oct-18 17:50 33.808300 -117.784759 210 3134ft 110kts
07-Oct-18 17:51 33.781875 -117.802885 212 2415ft 112kts
07-Oct-18 17:52 33.757790 -117.820992 211 1738ft 83kts
07-Oct-18 17:53 33.735341 -117.832147 202 1532ft 90kts
07-Oct-18 17:54 33.714581 -117.844557 206 875ft 77kts
07-Oct-18 17:55 33.695467 -117.856221 206 441ft 73kts
07-Oct-18 17:56 33.680701 -117.865638 208 59ft 45kts
07-Oct-18 17:57 33.678128 -117.868438 288 59ft 5kts
07-Oct-18 17:58 33.676363 -117.870524 234 59ft 0kts
07-Oct-18 17:59 33.676309 -117.870634 244 59ft 4kts
07-Oct-18 18:00 33.676170 -117.870860 209 59ft 0kts
07-Oct-18 18:01 33.676170 -117.870860 209 59ft 0kts
07-Oct-18 18:02 33.676170 -117.870860 209 59ft 0kts
07-Oct-18 18:03 33.676170 -117.870860 209 59ft 0kts

Navigation Log

Ident Type
Flight plan parsing failed, navigation log unavailable